sensor_id;sensor_type;location;lat;lon;timestamp;temperature;humidity
45491;DHT22;31237;45.586;13.782;2022-12-18T00:01:42;3.60;85.70
45491;DHT22;31237;45.586;13.782;2022-12-18T00:04:19;3.60;85.70
45491;DHT22;31237;45.586;13.782;2022-12-18T00:06:45;3.60;85.60
45491;DHT22;31237;45.586;13.782;2022-12-18T00:09:11;3.60;85.70
45491;DHT22;31237;45.586;13.782;2022-12-18T00:11:37;3.50;85.70
45491;DHT22;31237;45.586;13.782;2022-12-18T00:14:02;3.50;85.90
45491;DHT22;31237;45.586;13.782;2022-12-18T00:16:29;3.50;86.00
45491;DHT22;31237;45.586;13.782;2022-12-18T00:18:56;3.40;86.30
45491;DHT22;31237;45.586;13.782;2022-12-18T00:21:22;3.40;86.50
45491;DHT22;31237;45.586;13.782;2022-12-18T00:23:49;3.40;86.60
45491;DHT22;31237;45.586;13.782;2022-12-18T00:26:18;3.40;86.70
45491;DHT22;31237;45.586;13.782;2022-12-18T00:28:45;3.40;86.70
45491;DHT22;31237;45.586;13.782;2022-12-18T00:31:13;3.40;86.70
45491;DHT22;31237;45.586;13.782;2022-12-18T00:33:39;3.40;86.80
45491;DHT22;31237;45.586;13.782;2022-12-18T00:36:07;3.40;87.00
45491;DHT22;31237;45.586;13.782;2022-12-18T00:38:34;3.40;87.00
45491;DHT22;31237;45.586;13.782;2022-12-18T00:41:00;3.30;87.20
45491;DHT22;31237;45.586;13.782;2022-12-18T00:43:27;3.40;87.30
45491;DHT22;31237;45.586;13.782;2022-12-18T00:45:53;3.40;87.40
45491;DHT22;31237;45.586;13.782;2022-12-18T00:48:18;3.40;87.50
45491;DHT22;31237;45.586;13.782;2022-12-18T00:50:45;3.40;87.60
45491;DHT22;31237;45.586;13.782;2022-12-18T00:53:11;3.40;87.80
45491;DHT22;31237;45.586;13.782;2022-12-18T00:55:40;3.30;87.80
45491;DHT22;31237;45.586;13.782;2022-12-18T00:58:07;3.30;88.00
45491;DHT22;31237;45.586;13.782;2022-12-18T01:00:32;3.30;87.90
45491;DHT22;31237;45.586;13.782;2022-12-18T01:02:58;3.30;88.10
45491;DHT22;31237;45.586;13.782;2022-12-18T01:05:24;3.20;88.30
45491;DHT22;31237;45.586;13.782;2022-12-18T01:07:50;3.20;88.40
45491;DHT22;31237;45.586;13.782;2022-12-18T01:10:16;3.20;88.50
45491;DHT22;31237;45.586;13.782;2022-12-18T01:12:42;3.20;88.60
45491;DHT22;31237;45.586;13.782;2022-12-18T01:15:09;3.10;88.60
45491;DHT22;31237;45.586;13.782;2022-12-18T01:17:35;3.10;88.70
45491;DHT22;31237;45.586;13.782;2022-12-18T01:20:00;3.10;88.80
45491;DHT22;31237;45.586;13.782;2022-12-18T01:22:26;3.10;89.00
45491;DHT22;31237;45.586;13.782;2022-12-18T01:24:52;3.10;89.00
45491;DHT22;31237;45.586;13.782;2022-12-18T01:27:18;3.10;89.00
45491;DHT22;31237;45.586;13.782;2022-12-18T01:29:43;3.00;89.00
45491;DHT22;31237;45.586;13.782;2022-12-18T01:32:09;3.00;89.10
45491;DHT22;31237;45.586;13.782;2022-12-18T01:34:38;3.00;89.20
45491;DHT22;31237;45.586;13.782;2022-12-18T01:37:04;3.00;89.30
45491;DHT22;31237;45.586;13.782;2022-12-18T01:39:31;2.90;89.30
45491;DHT22;31237;45.586;13.782;2022-12-18T01:42:02;2.90;89.30
45491;DHT22;31237;45.586;13.782;2022-12-18T01:50:09;2.80;89.80
45491;DHT22;31237;45.586;13.782;2022-12-18T01:52:37;2.90;90.00
45491;DHT22;31237;45.586;13.782;2022-12-18T01:55:06;2.90;90.00
45491;DHT22;31237;45.586;13.782;2022-12-18T01:57:33;2.90;90.00
45491;DHT22;31237;45.586;13.782;2022-12-18T02:00:03;2.90;89.80
45491;DHT22;31237;45.586;13.782;2022-12-18T02:02:29;2.90;89.80
45491;DHT22;31237;45.586;13.782;2022-12-18T02:04:55;2.90;89.70
45491;DHT22;31237;45.586;13.782;2022-12-18T02:10:10;2.90;89.70
45491;DHT22;31237;45.586;13.782;2022-12-18T02:12:48;2.90;89.60
45491;DHT22;31237;45.586;13.782;2022-12-18T02:20:44;2.80;89.60
45491;DHT22;31237;45.586;13.782;2022-12-18T02:28:27;2.80;89.60
45491;DHT22;31237;45.586;13.782;2022-12-18T02:30:56;2.80;89.70
45491;DHT22;31237;45.586;13.782;2022-12-18T02:33:25;2.80;89.70
45491;DHT22;31237;45.586;13.782;2022-12-18T02:35:54;2.70;89.70
45491;DHT22;31237;45.586;13.782;2022-12-18T02:38:21;2.70;89.80
45491;DHT22;31237;45.586;13.782;2022-12-18T02:40:49;2.70;89.80
45491;DHT22;31237;45.586;13.782;2022-12-18T02:43:16;2.60;89.80
45491;DHT22;31237;45.586;13.782;2022-12-18T02:45:57;2.60;89.90
45491;DHT22;31237;45.586;13.782;2022-12-18T02:48:26;2.60;90.00
45491;DHT22;31237;45.586;13.782;2022-12-18T02:51:02;2.50;90.00
45491;DHT22;31237;45.586;13.782;2022-12-18T02:53:48;2.50;90.10
45491;DHT22;31237;45.586;13.782;2022-12-18T02:56:21;2.50;90.10
45491;DHT22;31237;45.586;13.782;2022-12-18T02:59:02;2.50;90.20
45491;DHT22;31237;45.586;13.782;2022-12-18T03:01:53;2.50;90.30
45491;DHT22;31237;45.586;13.782;2022-12-18T03:06:59;2.50;90.30
45491;DHT22;31237;45.586;13.782;2022-12-18T03:09:38;2.50;90.30
45491;DHT22;31237;45.586;13.782;2022-12-18T03:12:13;2.50;90.60
45491;DHT22;31237;45.586;13.782;2022-12-18T03:17:32;2.40;90.30
45491;DHT22;31237;45.586;13.782;2022-12-18T03:20:09;2.40;90.40
45491;DHT22;31237;45.586;13.782;2022-12-18T03:22:37;2.40;90.50
45491;DHT22;31237;45.586;13.782;2022-12-18T03:25:06;2.40;90.80
45491;DHT22;31237;45.586;13.782;2022-12-18T03:27:33;2.30;90.60
45491;DHT22;31237;45.586;13.782;2022-12-18T03:32:43;2.40;90.60
45491;DHT22;31237;45.586;13.782;2022-12-18T03:35:13;2.40;90.60
45491;DHT22;31237;45.586;13.782;2022-12-18T03:37:39;2.40;90.60
45491;DHT22;31237;45.586;13.782;2022-12-18T03:40:06;2.40;90.60
45491;DHT22;31237;45.586;13.782;2022-12-18T03:42:48;2.40;90.60
45491;DHT22;31237;45.586;13.782;2022-12-18T03:50:28;2.30;90.70
45491;DHT22;31237;45.586;13.782;2022-12-18T03:55:26;2.40;90.80
45491;DHT22;31237;45.586;13.782;2022-12-18T03:57:54;2.40;90.80
45491;DHT22;31237;45.586;13.782;2022-12-18T04:00:20;2.40;90.80
45491;DHT22;31237;45.586;13.782;2022-12-18T04:02:52;2.40;90.80
45491;DHT22;31237;45.586;13.782;2022-12-18T04:05:19;2.40;90.80
45491;DHT22;31237;45.586;13.782;2022-12-18T04:07:47;2.40;90.80
45491;DHT22;31237;45.586;13.782;2022-12-18T04:10:15;2.40;90.80
45491;DHT22;31237;45.586;13.782;2022-12-18T04:12:42;2.40;90.70
45491;DHT22;31237;45.586;13.782;2022-12-18T04:15:08;2.40;90.80
45491;DHT22;31237;45.586;13.782;2022-12-18T04:17:34;2.30;90.80
45491;DHT22;31237;45.586;13.782;2022-12-18T04:20:00;2.30;90.80
45491;DHT22;31237;45.586;13.782;2022-12-18T04:22:26;2.30;90.90
45491;DHT22;31237;45.586;13.782;2022-12-18T04:24:51;2.30;90.90
45491;DHT22;31237;45.586;13.782;2022-12-18T04:27:17;2.30;90.90
45491;DHT22;31237;45.586;13.782;2022-12-18T04:29:43;2.30;90.90
45491;DHT22;31237;45.586;13.782;2022-12-18T04:32:09;2.30;90.90
45491;DHT22;31237;45.586;13.782;2022-12-18T04:34:34;2.30;90.90
45491;DHT22;31237;45.586;13.782;2022-12-18T04:37:00;2.30;90.90
45491;DHT22;31237;45.586;13.782;2022-12-18T04:39:26;2.30;90.90
45491;DHT22;31237;45.586;13.782;2022-12-18T04:41:52;2.30;90.90
45491;DHT22;31237;45.586;13.782;2022-12-18T04:44:17;2.20;90.90
45491;DHT22;31237;45.586;13.782;2022-12-18T04:46:43;2.20;90.90
45491;DHT22;31237;45.586;13.782;2022-12-18T04:49:09;2.20;91.00
45491;DHT22;31237;45.586;13.782;2022-12-18T04:51:36;2.10;91.00
45491;DHT22;31237;45.586;13.782;2022-12-18T04:54:02;2.10;91.00
45491;DHT22;31237;45.586;13.782;2022-12-18T04:56:28;2.10;91.00
45491;DHT22;31237;45.586;13.782;2022-12-18T04:58:53;2.10;91.00
45491;DHT22;31237;45.586;13.782;2022-12-18T05:01:19;2.10;91.10
45491;DHT22;31237;45.586;13.782;2022-12-18T05:03:45;2.10;91.10
45491;DHT22;31237;45.586;13.782;2022-12-18T05:06:10;2.10;91.10
45491;DHT22;31237;45.586;13.782;2022-12-18T05:08:36;2.10;91.10
45491;DHT22;31237;45.586;13.782;2022-12-18T05:11:05;2.00;91.10
45491;DHT22;31237;45.586;13.782;2022-12-18T05:13:32;2.10;91.10
45491;DHT22;31237;45.586;13.782;2022-12-18T05:15:58;2.00;91.10
45491;DHT22;31237;45.586;13.782;2022-12-18T05:18:24;2.00;91.20
45491;DHT22;31237;45.586;13.782;2022-12-18T05:20:51;2.00;91.20
45491;DHT22;31237;45.586;13.782;2022-12-18T05:23:18;1.90;91.20
45491;DHT22;31237;45.586;13.782;2022-12-18T05:25:50;2.00;91.30
45491;DHT22;31237;45.586;13.782;2022-12-18T05:28:16;2.00;91.30
45491;DHT22;31237;45.586;13.782;2022-12-18T05:30:42;1.90;91.30
45491;DHT22;31237;45.586;13.782;2022-12-18T05:33:07;1.90;91.40
45491;DHT22;31237;45.586;13.782;2022-12-18T05:35:33;1.90;91.40
45491;DHT22;31237;45.586;13.782;2022-12-18T05:37:59;1.90;91.40
45491;DHT22;31237;45.586;13.782;2022-12-18T05:40:24;1.90;91.50
45491;DHT22;31237;45.586;13.782;2022-12-18T05:42:50;1.80;91.50
45491;DHT22;31237;45.586;13.782;2022-12-18T05:45:16;1.80;91.50
45491;DHT22;31237;45.586;13.782;2022-12-18T05:47:41;1.80;91.80
45491;DHT22;31237;45.586;13.782;2022-12-18T05:50:07;1.90;91.70
45491;DHT22;31237;45.586;13.782;2022-12-18T05:52:33;1.80;91.70
45491;DHT22;31237;45.586;13.782;2022-12-18T05:54:59;1.90;91.70
45491;DHT22;31237;45.586;13.782;2022-12-18T05:57:25;1.90;91.60
45491;DHT22;31237;45.586;13.782;2022-12-18T05:59:50;1.80;91.60
45491;DHT22;31237;45.586;13.782;2022-12-18T06:02:16;1.80;91.60
45491;DHT22;31237;45.586;13.782;2022-12-18T06:04:42;1.80;91.70
45491;DHT22;31237;45.586;13.782;2022-12-18T06:07:07;1.80;91.80
45491;DHT22;31237;45.586;13.782;2022-12-18T06:09:33;1.80;91.80
45491;DHT22;31237;45.586;13.782;2022-12-18T06:12:00;1.70;91.80
45491;DHT22;31237;45.586;13.782;2022-12-18T06:14:26;1.70;91.80
45491;DHT22;31237;45.586;13.782;2022-12-18T06:16:51;1.70;91.80
45491;DHT22;31237;45.586;13.782;2022-12-18T06:19:17;1.60;91.80
45491;DHT22;31237;45.586;13.782;2022-12-18T06:21:43;1.60;91.90
45491;DHT22;31237;45.586;13.782;2022-12-18T06:24:09;1.70;92.00
45491;DHT22;31237;45.586;13.782;2022-12-18T06:26:37;1.70;92.10
45491;DHT22;31237;45.586;13.782;2022-12-18T06:29:04;1.70;92.10
45491;DHT22;31237;45.586;13.782;2022-12-18T06:31:30;1.70;92.10
45491;DHT22;31237;45.586;13.782;2022-12-18T06:33:55;1.70;92.10
45491;DHT22;31237;45.586;13.782;2022-12-18T06:36:21;1.70;92.10
45491;DHT22;31237;45.586;13.782;2022-12-18T06:38:47;1.70;92.10
45491;DHT22;31237;45.586;13.782;2022-12-18T06:41:16;1.70;92.10
45491;DHT22;31237;45.586;13.782;2022-12-18T06:43:42;1.70;92.20
45491;DHT22;31237;45.586;13.782;2022-12-18T06:46:08;1.70;92.40
45491;DHT22;31237;45.586;13.782;2022-12-18T06:48:34;1.70;92.20
45491;DHT22;31237;45.586;13.782;2022-12-18T06:51:00;1.70;92.20
45491;DHT22;31237;45.586;13.782;2022-12-18T06:53:26;1.70;92.20
45491;DHT22;31237;45.586;13.782;2022-12-18T06:55:53;1.70;92.20
45491;DHT22;31237;45.586;13.782;2022-12-18T06:58:18;1.70;92.20
45491;DHT22;31237;45.586;13.782;2022-12-18T07:00:44;1.70;92.20
45491;DHT22;31237;45.586;13.782;2022-12-18T07:03:10;1.70;92.20
45491;DHT22;31237;45.586;13.782;2022-12-18T07:05:40;1.60;92.20
45491;DHT22;31237;45.586;13.782;2022-12-18T07:08:06;1.60;92.20
45491;DHT22;31237;45.586;13.782;2022-12-18T07:10:32;1.60;92.30
45491;DHT22;31237;45.586;13.782;2022-12-18T07:12:57;1.60;92.30
45491;DHT22;31237;45.586;13.782;2022-12-18T07:15:23;1.60;92.40
45491;DHT22;31237;45.586;13.782;2022-12-18T07:17:49;1.70;92.50
45491;DHT22;31237;45.586;13.782;2022-12-18T07:20:14;1.70;92.50
45491;DHT22;31237;45.586;13.782;2022-12-18T07:22:40;1.70;92.50
45491;DHT22;31237;45.586;13.782;2022-12-18T07:25:06;1.70;92.50
45491;DHT22;31237;45.586;13.782;2022-12-18T07:27:32;1.70;92.50
45491;DHT22;31237;45.586;13.782;2022-12-18T07:29:58;1.70;92.40
45491;DHT22;31237;45.586;13.782;2022-12-18T07:32:24;1.70;92.40
45491;DHT22;31237;45.586;13.782;2022-12-18T07:34:49;1.70;92.50
45491;DHT22;31237;45.586;13.782;2022-12-18T07:37:15;1.70;92.50
45491;DHT22;31237;45.586;13.782;2022-12-18T07:39:41;1.70;92.50
45491;DHT22;31237;45.586;13.782;2022-12-18T07:42:06;1.70;92.60
45491;DHT22;31237;45.586;13.782;2022-12-18T07:44:50;1.70;92.60
45491;DHT22;31237;45.586;13.782;2022-12-18T07:47:16;1.70;92.60
45491;DHT22;31237;45.586;13.782;2022-12-18T07:49:42;1.70;92.70
45491;DHT22;31237;45.586;13.782;2022-12-18T07:52:07;1.80;92.70
45491;DHT22;31237;45.586;13.782;2022-12-18T07:54:34;1.80;92.70
45491;DHT22;31237;45.586;13.782;2022-12-18T07:57:00;1.80;92.70
45491;DHT22;31237;45.586;13.782;2022-12-18T07:59:26;1.90;92.70
45491;DHT22;31237;45.586;13.782;2022-12-18T08:01:52;1.90;92.70
45491;DHT22;31237;45.586;13.782;2022-12-18T08:04:17;1.90;92.60
45491;DHT22;31237;45.586;13.782;2022-12-18T08:06:43;2.00;92.70
45491;DHT22;31237;45.586;13.782;2022-12-18T08:09:10;2.00;92.70
45491;DHT22;31237;45.586;13.782;2022-12-18T08:11:35;2.00;92.70
45491;DHT22;31237;45.586;13.782;2022-12-18T08:14:01;2.10;92.70
45491;DHT22;31237;45.586;13.782;2022-12-18T08:16:27;2.20;92.70
45491;DHT22;31237;45.586;13.782;2022-12-18T08:18:53;2.20;92.60
45491;DHT22;31237;45.586;13.782;2022-12-18T08:21:22;2.30;92.60
45491;DHT22;31237;45.586;13.782;2022-12-18T08:23:49;2.30;92.50
45491;DHT22;31237;45.586;13.782;2022-12-18T08:26:16;2.40;92.50
45491;DHT22;31237;45.586;13.782;2022-12-18T08:28:41;2.40;92.40
45491;DHT22;31237;45.586;13.782;2022-12-18T08:31:08;2.50;92.30
45491;DHT22;31237;45.586;13.782;2022-12-18T08:33:34;2.50;92.30
45491;DHT22;31237;45.586;13.782;2022-12-18T08:36:00;2.60;92.20
45491;DHT22;31237;45.586;13.782;2022-12-18T08:38:27;2.60;92.20
45491;DHT22;31237;45.586;13.782;2022-12-18T08:41:06;2.70;92.10
45491;DHT22;31237;45.586;13.782;2022-12-18T08:43:32;2.70;92.00
45491;DHT22;31237;45.586;13.782;2022-12-18T08:46:17;2.80;92.30
45491;DHT22;31237;45.586;13.782;2022-12-18T08:48:44;2.80;91.80
45491;DHT22;31237;45.586;13.782;2022-12-18T08:51:09;2.90;91.70
45491;DHT22;31237;45.586;13.782;2022-12-18T08:53:36;2.90;91.60
45491;DHT22;31237;45.586;13.782;2022-12-18T08:56:02;2.90;91.50
45491;DHT22;31237;45.586;13.782;2022-12-18T08:58:28;3.00;91.40
45491;DHT22;31237;45.586;13.782;2022-12-18T09:00:58;3.10;91.40
45491;DHT22;31237;45.586;13.782;2022-12-18T09:03:24;3.10;91.20
45491;DHT22;31237;45.586;13.782;2022-12-18T09:05:50;3.20;91.20
45491;DHT22;31237;45.586;13.782;2022-12-18T09:08:16;3.20;91.10
45491;DHT22;31237;45.586;13.782;2022-12-18T09:10:43;3.30;91.00
45491;DHT22;31237;45.586;13.782;2022-12-18T09:13:10;3.30;91.00
45491;DHT22;31237;45.586;13.782;2022-12-18T09:15:47;3.30;90.90
45491;DHT22;31237;45.586;13.782;2022-12-18T09:18:15;3.40;90.80
45491;DHT22;31237;45.586;13.782;2022-12-18T09:20:41;3.40;90.60
45491;DHT22;31237;45.586;13.782;2022-12-18T09:23:07;3.40;90.70
45491;DHT22;31237;45.586;13.782;2022-12-18T09:25:34;3.50;90.70
45491;DHT22;31237;45.586;13.782;2022-12-18T09:28:02;3.60;90.70
45491;DHT22;31237;45.586;13.782;2022-12-18T09:30:28;3.60;90.60
45491;DHT22;31237;45.586;13.782;2022-12-18T09:32:54;3.70;90.80
45491;DHT22;31237;45.586;13.782;2022-12-18T09:35:20;3.80;90.40
45491;DHT22;31237;45.586;13.782;2022-12-18T09:37:46;3.80;90.20
45491;DHT22;31237;45.586;13.782;2022-12-18T09:40:21;3.80;90.10
45491;DHT22;31237;45.586;13.782;2022-12-18T09:42:54;3.90;90.10
45491;DHT22;31237;45.586;13.782;2022-12-18T09:45:21;3.90;90.00
45491;DHT22;31237;45.586;13.782;2022-12-18T09:47:48;4.00;89.80
45491;DHT22;31237;45.586;13.782;2022-12-18T09:50:31;4.00;89.80
45491;DHT22;31237;45.586;13.782;2022-12-18T09:53:02;4.00;89.70
45491;DHT22;31237;45.586;13.782;2022-12-18T09:55:34;4.10;89.60
45491;DHT22;31237;45.586;13.782;2022-12-18T09:58:30;4.10;89.20
45491;DHT22;31237;45.586;13.782;2022-12-18T10:00:56;4.20;89.20
45491;DHT22;31237;45.586;13.782;2022-12-18T10:03:22;4.20;89.00
45491;DHT22;31237;45.586;13.782;2022-12-18T10:14:45;4.40;88.40
45491;DHT22;31237;45.586;13.782;2022-12-18T10:17:19;4.50;88.40
45491;DHT22;31237;45.586;13.782;2022-12-18T10:20:11;4.50;88.20
45491;DHT22;31237;45.586;13.782;2022-12-18T10:25:35;4.60;88.00
45491;DHT22;31237;45.586;13.782;2022-12-18T10:28:15;4.70;87.70
45491;DHT22;31237;45.586;13.782;2022-12-18T10:30:42;4.70;87.50
45491;DHT22;31237;45.586;13.782;2022-12-18T10:33:23;4.80;87.10
45491;DHT22;31237;45.586;13.782;2022-12-18T10:35:52;4.90;86.60
45491;DHT22;31237;45.586;13.782;2022-12-18T10:40:56;4.90;86.40
45491;DHT22;31237;45.586;13.782;2022-12-18T10:43:30;5.00;86.20
45491;DHT22;31237;45.586;13.782;2022-12-18T10:46:18;5.00;86.00
45491;DHT22;31237;45.586;13.782;2022-12-18T10:48:50;5.10;85.90
45491;DHT22;31237;45.586;13.782;2022-12-18T10:51:30;5.10;85.80
45491;DHT22;31237;45.586;13.782;2022-12-18T10:54:05;5.20;85.70
45491;DHT22;31237;45.586;13.782;2022-12-18T10:56:33;5.20;85.50
45491;DHT22;31237;45.586;13.782;2022-12-18T10:59:05;5.20;85.20
45491;DHT22;31237;45.586;13.782;2022-12-18T11:04:20;5.30;84.80
45491;DHT22;31237;45.586;13.782;2022-12-18T11:07:12;5.30;84.80
45491;DHT22;31237;45.586;13.782;2022-12-18T11:09:39;5.40;84.40
45491;DHT22;31237;45.586;13.782;2022-12-18T11:12:15;5.40;84.10
45491;DHT22;31237;45.586;13.782;2022-12-18T11:17:31;5.40;83.60
45491;DHT22;31237;45.586;13.782;2022-12-18T11:20:02;5.50;83.00
45491;DHT22;31237;45.586;13.782;2022-12-18T11:22:30;5.50;83.40
45491;DHT22;31237;45.586;13.782;2022-12-18T11:27:28;5.50;83.20
45491;DHT22;31237;45.586;13.782;2022-12-18T11:30:07;5.50;82.90
45491;DHT22;31237;45.586;13.782;2022-12-18T11:32:43;5.50;83.00
45491;DHT22;31237;45.586;13.782;2022-12-18T11:36:02;5.50;82.80
45491;DHT22;31237;45.586;13.782;2022-12-18T11:38:19;5.50;82.90
45491;DHT22;31237;45.586;13.782;2022-12-18T11:43:38;5.60;82.50
45491;DHT22;31237;45.586;13.782;2022-12-18T11:46:14;5.60;82.10
45491;DHT22;31237;45.586;13.782;2022-12-18T11:48:53;5.60;81.90
45491;DHT22;31237;45.586;13.782;2022-12-18T11:51:38;5.60;81.90
45491;DHT22;31237;45.586;13.782;2022-12-18T11:54:13;5.60;81.90
45491;DHT22;31237;45.586;13.782;2022-12-18T11:59:28;5.60;82.10
45491;DHT22;31237;45.586;13.782;2022-12-18T12:08:52;5.60;82.00
45491;DHT22;31237;45.586;13.782;2022-12-18T12:28:19;5.60;81.60
45491;DHT22;31237;45.586;13.782;2022-12-18T12:30:50;5.60;81.70
45491;DHT22;31237;45.586;13.782;2022-12-18T12:34:15;5.60;81.80
45491;DHT22;31237;45.586;13.782;2022-12-18T12:39:35;5.60;81.40
45491;DHT22;31237;45.586;13.782;2022-12-18T12:42:04;5.60;81.50
45491;DHT22;31237;45.586;13.782;2022-12-18T12:44:55;5.60;81.50
45491;DHT22;31237;45.586;13.782;2022-12-18T12:47:33;5.60;81.50
45491;DHT22;31237;45.586;13.782;2022-12-18T12:50:01;5.50;81.30
45491;DHT22;31237;45.586;13.782;2022-12-18T12:52:33;5.50;81.40
45491;DHT22;31237;45.586;13.782;2022-12-18T12:55:02;5.50;81.40
45491;DHT22;31237;45.586;13.782;2022-12-18T12:58:06;5.50;81.10
45491;DHT22;31237;45.586;13.782;2022-12-18T13:00:40;5.50;81.40
45491;DHT22;31237;45.586;13.782;2022-12-18T13:03:24;5.50;81.50
45491;DHT22;31237;45.586;13.782;2022-12-18T13:05:58;5.50;81.30
45491;DHT22;31237;45.586;13.782;2022-12-18T13:08:30;5.50;81.50
45491;DHT22;31237;45.586;13.782;2022-12-18T13:11:00;5.50;81.60
45491;DHT22;31237;45.586;13.782;2022-12-18T13:13:53;5.40;81.70
45491;DHT22;31237;45.586;13.782;2022-12-18T13:16:23;5.40;81.60
45491;DHT22;31237;45.586;13.782;2022-12-18T13:18:58;5.40;81.70
45491;DHT22;31237;45.586;13.782;2022-12-18T13:21:28;5.30;81.60
45491;DHT22;31237;45.586;13.782;2022-12-18T13:23:55;5.30;81.70
45491;DHT22;31237;45.586;13.782;2022-12-18T13:26:28;5.30;81.80
45491;DHT22;31237;45.586;13.782;2022-12-18T13:28:56;5.30;81.90
45491;DHT22;31237;45.586;13.782;2022-12-18T13:34:22;5.30;82.00
45491;DHT22;31237;45.586;13.782;2022-12-18T13:36:49;5.20;82.00
45491;DHT22;31237;45.586;13.782;2022-12-18T13:41:42;5.20;82.10
45491;DHT22;31237;45.586;13.782;2022-12-18T13:51:44;5.00;82.50
45491;DHT22;31237;45.586;13.782;2022-12-18T13:54:18;5.00;82.50
45491;DHT22;31237;45.586;13.782;2022-12-18T13:56:46;5.00;82.60
45491;DHT22;31237;45.586;13.782;2022-12-18T13:59:24;4.90;82.60
45491;DHT22;31237;45.586;13.782;2022-12-18T14:04:37;4.80;82.70
45491;DHT22;31237;45.586;13.782;2022-12-18T14:07:22;4.80;83.40
45491;DHT22;31237;45.586;13.782;2022-12-18T14:12:32;4.60;83.00
45491;DHT22;31237;45.586;13.782;2022-12-18T14:17:58;4.50;83.40
45491;DHT22;31237;45.586;13.782;2022-12-18T14:20:31;4.50;83.50
45491;DHT22;31237;45.586;13.782;2022-12-18T14:22:58;4.40;83.60
45491;DHT22;31237;45.586;13.782;2022-12-18T14:25:26;4.40;83.70
45491;DHT22;31237;45.586;13.782;2022-12-18T14:30:44;4.30;84.00
45491;DHT22;31237;45.586;13.782;2022-12-18T14:33:14;4.30;84.10
45491;DHT22;31237;45.586;13.782;2022-12-18T14:35:43;4.30;84.20
45491;DHT22;31237;45.586;13.782;2022-12-18T14:38:24;4.20;84.20
45491;DHT22;31237;45.586;13.782;2022-12-18T14:43:23;4.20;84.30
45491;DHT22;31237;45.586;13.782;2022-12-18T14:45:48;4.20;84.40
45491;DHT22;31237;45.586;13.782;2022-12-18T14:48:41;4.20;84.40
45491;DHT22;31237;45.586;13.782;2022-12-18T14:53:46;4.10;84.40
45491;DHT22;31237;45.586;13.782;2022-12-18T14:56:36;4.10;84.50
45491;DHT22;31237;45.586;13.782;2022-12-18T14:59:05;4.00;84.50
45491;DHT22;31237;45.586;13.782;2022-12-18T15:01:44;4.00;84.50
45491;DHT22;31237;45.586;13.782;2022-12-18T15:04:35;3.90;84.60
45491;DHT22;31237;45.586;13.782;2022-12-18T15:09:30;3.90;84.60
45491;DHT22;31237;45.586;13.782;2022-12-18T15:11:58;3.90;84.60
45491;DHT22;31237;45.586;13.782;2022-12-18T15:17:23;3.80;84.70
45491;DHT22;31237;45.586;13.782;2022-12-18T15:19:51;3.80;84.70
45491;DHT22;31237;45.586;13.782;2022-12-18T15:22:28;3.70;84.70
45491;DHT22;31237;45.586;13.782;2022-12-18T15:24:56;3.70;84.70
45491;DHT22;31237;45.586;13.782;2022-12-18T15:27:33;3.70;84.80
45491;DHT22;31237;45.586;13.782;2022-12-18T15:32:39;3.60;84.90
45491;DHT22;31237;45.586;13.782;2022-12-18T15:35:22;3.50;85.00
45491;DHT22;31237;45.586;13.782;2022-12-18T15:37:50;3.50;85.10
45491;DHT22;31237;45.586;13.782;2022-12-18T15:40:21;3.40;85.20
45491;DHT22;31237;45.586;13.782;2022-12-18T15:42:48;3.40;85.30
45491;DHT22;31237;45.586;13.782;2022-12-18T15:45:32;3.30;85.30
45491;DHT22;31237;45.586;13.782;2022-12-18T15:47:59;3.30;85.40
45491;DHT22;31237;45.586;13.782;2022-12-18T15:50:25;3.30;85.40
45491;DHT22;31237;45.586;13.782;2022-12-18T15:52:53;3.30;85.50
45491;DHT22;31237;45.586;13.782;2022-12-18T15:55:22;3.30;85.50
45491;DHT22;31237;45.586;13.782;2022-12-18T15:58:07;3.30;85.40
45491;DHT22;31237;45.586;13.782;2022-12-18T16:00:35;3.20;85.40
45491;DHT22;31237;45.586;13.782;2022-12-18T16:03:02;3.20;85.50
45491;DHT22;31237;45.586;13.782;2022-12-18T16:05:28;3.20;85.60
45491;DHT22;31237;45.586;13.782;2022-12-18T16:07:54;3.20;85.60
45491;DHT22;31237;45.586;13.782;2022-12-18T16:10:20;3.10;85.60
45491;DHT22;31237;45.586;13.782;2022-12-18T16:12:46;3.10;85.70
45491;DHT22;31237;45.586;13.782;2022-12-18T16:15:13;3.10;85.70
45491;DHT22;31237;45.586;13.782;2022-12-18T16:17:41;3.00;85.70
45491;DHT22;31237;45.586;13.782;2022-12-18T16:20:21;3.00;85.90
45491;DHT22;31237;45.586;13.782;2022-12-18T16:22:48;3.00;86.00
45491;DHT22;31237;45.586;13.782;2022-12-18T16:25:23;3.00;86.00
45491;DHT22;31237;45.586;13.782;2022-12-18T16:27:51;3.00;86.10
45491;DHT22;31237;45.586;13.782;2022-12-18T16:30:29;3.00;86.20
45491;DHT22;31237;45.586;13.782;2022-12-18T16:32:58;3.00;86.10
45491;DHT22;31237;45.586;13.782;2022-12-18T16:35:25;3.00;86.20
45491;DHT22;31237;45.586;13.782;2022-12-18T16:37:52;3.00;86.20
45491;DHT22;31237;45.586;13.782;2022-12-18T16:40:17;3.00;86.20
45491;DHT22;31237;45.586;13.782;2022-12-18T16:42:45;2.90;86.10
45491;DHT22;31237;45.586;13.782;2022-12-18T16:45:14;2.90;86.20
45491;DHT22;31237;45.586;13.782;2022-12-18T16:47:40;2.90;86.30
45491;DHT22;31237;45.586;13.782;2022-12-18T16:50:06;2.90;86.40
45491;DHT22;31237;45.586;13.782;2022-12-18T16:52:33;2.90;86.50
45491;DHT22;31237;45.586;13.782;2022-12-18T16:54:59;2.80;86.40
45491;DHT22;31237;45.586;13.782;2022-12-18T16:57:25;2.80;86.60
45491;DHT22;31237;45.586;13.782;2022-12-18T16:59:50;2.80;86.80
45491;DHT22;31237;45.586;13.782;2022-12-18T17:04:44;2.80;86.90
45491;DHT22;31237;45.586;13.782;2022-12-18T17:07:10;2.80;87.00
45491;DHT22;31237;45.586;13.782;2022-12-18T17:09:37;2.80;86.90
45491;DHT22;31237;45.586;13.782;2022-12-18T17:12:03;2.80;87.00
45491;DHT22;31237;45.586;13.782;2022-12-18T17:14:29;2.80;86.90
45491;DHT22;31237;45.586;13.782;2022-12-18T17:16:55;2.70;86.90
45491;DHT22;31237;45.586;13.782;2022-12-18T17:19:22;2.70;86.90
45491;DHT22;31237;45.586;13.782;2022-12-18T17:21:49;2.70;87.00
45491;DHT22;31237;45.586;13.782;2022-12-18T17:24:16;2.70;87.00
45491;DHT22;31237;45.586;13.782;2022-12-18T17:26:42;2.70;87.10
45491;DHT22;31237;45.586;13.782;2022-12-18T17:29:11;2.70;87.20
45491;DHT22;31237;45.586;13.782;2022-12-18T17:31:38;2.70;87.20
45491;DHT22;31237;45.586;13.782;2022-12-18T17:34:04;2.70;87.30
45491;DHT22;31237;45.586;13.782;2022-12-18T17:36:30;2.70;87.40
45491;DHT22;31237;45.586;13.782;2022-12-18T17:38:59;2.70;87.30
45491;DHT22;31237;45.586;13.782;2022-12-18T17:41:26;2.70;87.30
45491;DHT22;31237;45.586;13.782;2022-12-18T17:43:57;2.70;87.40
45491;DHT22;31237;45.586;13.782;2022-12-18T17:46:24;2.70;87.40
45491;DHT22;31237;45.586;13.782;2022-12-18T17:48:52;2.60;87.30
45491;DHT22;31237;45.586;13.782;2022-12-18T17:51:19;2.70;87.30
45491;DHT22;31237;45.586;13.782;2022-12-18T17:53:45;2.60;87.30